Time;durP1;ratioP1;P1;durP2;ratioP2;P2;SDS_P1;SDS_P2;PMS_P1;PMS_P2;Temp;Humidity;BMP_temperature;BMP_pressure;BME280_temperature;BME280_humidity;BME280_pressure;Samples;Min_cycle;Max_cycle;Signal;HPM_P1;HPM_P2
2023/07/21 00:59:29;;;;;;;;;;;;;;;17.08;49.88672;101345.9;;;;-69
2023/07/21 01:04:28;;;;;;;;;;;;;;;17.04;49.74512;101343.4;;;;-67
2023/07/21 01:08:49;;;;;;;0.2;0.1;;;;;;;;;;;;;-68
2023/07/21 01:09:29;;;;;;;;;;;;;;;17.04;49.66602;101339.3;;;;-68
2023/07/21 01:14:29;;;;;;;;;;;;;;;16.97;49.83008;101336.3;;;;-69
2023/07/21 01:19:29;;;;;;;;;;;;;;;16.97;49.88672;101330.8;;;;-66
2023/07/21 01:24:32;;;;;;;;;;;;;;;16.94;49.76953;101329.3;;;;-67
2023/07/21 01:29:30;;;;;;;;;;;;;;;16.97;49.99902;101327.8;;;;-69
2023/07/21 01:34:29;;;;;;;;;;;;;;;16.96;49.78223;101328.3;;;;-68
2023/07/21 01:38:51;;;;;;;0.2;0.1;;;;;;;;;;;;;-68
2023/07/21 01:39:29;;;;;;;;;;;;;;;16.9;50.14941;101324.6;;;;-68
2023/07/21 01:44:28;;;;;;;;;;;;;;;16.85;50.31445;101317.7;;;;-68
2023/07/21 01:49:31;;;;;;;;;;;;;;;16.78;50.5332;101316.8;;;;-68
2023/07/21 01:54:31;;;;;;;;;;;;;;;16.76;50.38281;101313.4;;;;-68
2023/07/21 01:59:29;;;;;;;;;;;;;;;16.69;50.43164;101305.8;;;;-67
2023/07/21 02:04:28;;;;;;;;;;;;;;;16.66;50.55273;101296.2;;;;-68
2023/07/21 02:08:53;;;;;;;0.2;0;;;;;;;;;;;;;-68
2023/07/21 02:09:28;;;;;;;;;;;;;;;16.63;50.63965;101295.4;;;;-69
2023/07/21 02:14:28;;;;;;;;;;;;;;;16.6;50.66992;101293.3;;;;-67
2023/07/21 02:19:28;;;;;;;;;;;;;;;16.58;50.5332;101294.3;;;;-66
2023/07/21 02:24:29;;;;;;;;;;;;;;;16.51;50.63672;101289.8;;;;-68
2023/07/21 02:29:28;;;;;;;;;;;;;;;16.49;50.75879;101288.8;;;;-68
2023/07/21 02:34:29;;;;;;;;;;;;;;;16.43;50.76465;101291.6;;;;-68
2023/07/21 02:38:55;;;;;;;0.2;0;;;;;;;;;;;;;-68
2023/07/21 02:39:30;;;;;;;;;;;;;;;16.4;50.91992;101293.3;;;;-68
2023/07/21 02:44:29;;;;;;;;;;;;;;;16.38;51.05176;101289.3;;;;-67
2023/07/21 02:49:28;;;;;;;;;;;;;;;16.34;51.12598;101285.9;;;;-67
2023/07/21 02:54:28;;;;;;;;;;;;;;;16.28;51.30176;101280;;;;-68
2023/07/21 02:59:28;;;;;;;;;;;;;;;16.21;51.10059;101280.3;;;;-68
2023/07/21 03:04:31;;;;;;;;;;;;;;;16.14;51.40918;101276.3;;;;-68
2023/07/21 03:08:57;;;;;;;0.3;0.1;;;;;;;;;;;;;-68
2023/07/21 03:09:29;;;;;;;;;;;;;;;16.08;51.25586;101272.6;;;;-67
2023/07/21 03:14:28;;;;;;;;;;;;;;;15.98;51.67285;101270.6;;;;-68
2023/07/21 03:19:28;;;;;;;;;;;;;;;15.88;51.47949;101274.3;;;;-70
2023/07/21 03:24:28;;;;;;;;;;;;;;;15.84;51.61133;101275.2;;;;-71
2023/07/21 03:29:28;;;;;;;;;;;;;;;15.8;51.85547;101275.8;;;;-70
2023/07/21 03:34:28;;;;;;;;;;;;;;;15.74;51.94922;101272.3;;;;-70
2023/07/21 03:39:02;;;;;;;0.2;0.1;;;;;;;;;;;;;-70
2023/07/21 03:39:28;;;;;;;;;;;;;;;15.65;52.16504;101259.3;;;;-69
2023/07/21 03:44:28;;;;;;;;;;;;;;;15.6;52.18066;101253.4;;;;-71
2023/07/21 03:49:28;;;;;;;;;;;;;;;15.56;52.37988;101253;;;;-72
2023/07/21 03:54:29;;;;;;;;;;;;;;;15.47;52.25586;101254.9;;;;-71
2023/07/21 03:59:29;;;;;;;;;;;;;;;15.42;52.26074;101248.6;;;;-69
2023/07/21 04:04:32;;;;;;;;;;;;;;;15.36;52.44629;101247.6;;;;-72
2023/07/21 04:09:02;;;;;;;0.2;0;;;;;;;;;;;;;-70
2023/07/21 04:09:28;;;;;;;;;;;;;;;15.31;52.50781;101248.9;;;;-70
2023/07/21 04:14:28;;;;;;;;;;;;;;;15.27;52.67188;101250.8;;;;-71
2023/07/21 04:19:29;;;;;;;;;;;;;;;15.25;52.59082;101247.7;;;;-70
2023/07/21 04:24:28;;;;;;;;;;;;;;;15.24;52.66895;101244.3;;;;-69
2023/07/21 04:29:28;;;;;;;;;;;;;;;15.18;52.62891;101236.9;;;;-70
2023/07/21 04:34:29;;;;;;;;;;;;;;;15.21;52.71094;101232.9;;;;-71
2023/07/21 04:39:03;;;;;;;0.2;0.1;;;;;;;;;;;;;-70
2023/07/21 04:39:28;;;;;;;;;;;;;;;15.17;52.86328;101225.7;;;;-71
2023/07/21 04:44:28;;;;;;;;;;;;;;;15.17;52.62598;101219.2;;;;-72
2023/07/21 04:49:28;;;;;;;;;;;;;;;15.21;52.79004;101218.2;;;;-70
2023/07/21 04:54:28;;;;;;;;;;;;;;;15.27;52.54785;101212.8;;;;-71
2023/07/21 04:59:31;;;;;;;;;;;;;;;15.36;52.52539;101208.5;;;;-71
2023/07/21 05:04:28;;;;;;;;;;;;;;;15.44;52.29785;101207.7;;;;-70
2023/07/21 05:09:05;;;;;;;0.2;0.1;;;;;;;;;;;;;-71
2023/07/21 05:09:29;;;;;;;;;;;;;;;15.51;52.31738;101205.8;;;;-70
2023/07/21 05:14:28;;;;;;;;;;;;;;;15.66;52.05371;101203.3;;;;-71
2023/07/21 05:19:30;;;;;;;;;;;;;;;15.84;51.79199;101205.5;;;;-70
2023/07/21 05:24:28;;;;;;;;;;;;;;;16.01;51.6084;101208.5;;;;-71
2023/07/21 05:29:28;;;;;;;;;;;;;;;16.16;51.37695;101210.2;;;;-71
2023/07/21 05:34:28;;;;;;;;;;;;;;;16.32;51.23828;101212.8;;;;-70
2023/07/21 05:39:07;;;;;;;0.2;0.1;;;;;;;;;;;;;-73
2023/07/21 05:39:30;;;;;;;;;;;;;;;16.48;51.17773;101220.5;;;;-71
2023/07/21 05:44:30;;;;;;;;;;;;;;;16.62;51.24902;101215.7;;;;-72
2023/07/21 05:49:28;;;;;;;;;;;;;;;16.74;51.33203;101215.3;;;;-70
2023/07/21 05:54:28;;;;;;;;;;;;;;;16.86;51.09668;101211.5;;;;-71
2023/07/21 05:59:31;;;;;;;;;;;;;;;17;50.90918;101210.8;;;;-72
2023/07/21 06:04:28;;;;;;;;;;;;;;;17.16;50.80273;101209.5;;;;-68
2023/07/21 06:09:09;;;;;;;0.2;0.1;;;;;;;;;;;;;-69
2023/07/21 06:09:31;;;;;;;;;;;;;;;17.33;50.9248;101205;;;;-67
2023/07/21 06:14:28;;;;;;;;;;;;;;;17.48;50.68066;101209.6;;;;-68
2023/07/21 06:19:31;;;;;;;;;;;;;;;17.58;50.77148;101208.3;;;;-67
2023/07/21 06:24:28;;;;;;;;;;;;;;;17.69;50.53418;101208.2;;;;-69
2023/07/21 06:29:28;;;;;;;;;;;;;;;17.83;50.48242;101216.7;;;;-67
2023/07/21 06:34:28;;;;;;;;;;;;;;;17.97;50.4873;101212.7;;;;-68
2023/07/21 06:39:11;;;;;;;0.2;0;;;;;;;;;;;;;-68
2023/07/21 06:39:28;;;;;;;;;;;;;;;18.1;50.54688;101213.8;;;;-68
2023/07/21 06:44:31;;;;;;;;;;;;;;;18.19;50.46582;101209.9;;;;-68
2023/07/21 06:49:28;;;;;;;;;;;;;;;18.32;50.68555;101214.4;;;;-67
2023/07/21 06:54:30;;;;;;;;;;;;;;;18.49;50.77344;101209.3;;;;-67
2023/07/21 06:59:28;;;;;;;;;;;;;;;18.65;50.79199;101205.2;;;;-69
2023/07/21 07:04:28;;;;;;;;;;;;;;;18.81;51.76367;101204.1;;;;-68
2023/07/21 07:09:14;;;;;;;0.2;0;;;;;;;;;;;;;-70
2023/07/21 07:09:28;;;;;;;;;;;;;;;18.96;51.72656;101200.2;;;;-69
2023/07/21 07:14:29;;;;;;;;;;;;;;;19.11;51.5957;101197.8;;;;-68
2023/07/21 07:19:28;;;;;;;;;;;;;;;19.23;51.68848;101197.5;;;;-68
2023/07/21 07:24:28;;;;;;;;;;;;;;;19.33;52.58789;101196.8;;;;-68
2023/07/21 07:29:28;;;;;;;;;;;;;;;19.41;52.04004;101195.3;;;;-69
2023/07/21 07:34:28;;;;;;;;;;;;;;;19.51;51.92676;101194.9;;;;-69
2023/07/21 07:39:16;;;;;;;0.2;0;;;;;;;;;;;;;-68
2023/07/21 07:39:29;;;;;;;;;;;;;;;19.58;52.01465;101196.2;;;;-68
2023/07/21 07:44:28;;;;;;;;;;;;;;;19.67;52.32129;101201;;;;-69
2023/07/21 07:49:29;;;;;;;;;;;;;;;19.79;52.36816;101199.4;;;;-69
2023/07/21 07:54:28;;;;;;;;;;;;;;;19.89;52.56348;101197;;;;-69
2023/07/21 07:59:28;;;;;;;;;;;;;;;20.02;52.34082;101193;;;;-67
2023/07/21 08:04:29;;;;;;;;;;;;;;;20.18;52.19922;101188.2;;;;-69
2023/07/21 08:09:19;;;;;;;0.2;0;;;;;;;;;;;;;-68
2023/07/21 08:09:28;;;;;;;;;;;;;;;20.36;51.95703;101184.6;;;;-67
2023/07/21 08:14:28;;;;;;;;;;;;;;;20.56;51.94629;101186.6;;;;-68
2023/07/21 08:19:28;;;;;;;;;;;;;;;20.77;51.83398;101188.5;;;;-68
2023/07/21 08:24:28;;;;;;;;;;;;;;;21.01;51.14063;101188.9;;;;-68
2023/07/21 08:29:28;;;;;;;;;;;;;;;21.27;50.55371;101193.6;;;;-68
2023/07/21 08:34:28;;;;;;;;;;;;;;;21.43;50.0791;101197.6;;;;-69
2023/07/21 08:39:21;;;;;;;0.2;0.1;;;;;;;;;;;;;-69
2023/07/21 08:39:31;;;;;;;;;;;;;;;21.46;49.88965;101199;;;;-70
2023/07/21 08:44:29;;;;;;;;;;;;;;;21.43;50.17188;101196.5;;;;-67
2023/07/21 08:49:28;;;;;;;;;;;;;;;21.41;50.15723;101195.7;;;;-68
2023/07/21 08:54:28;;;;;;;;;;;;;;;21.37;50.06152;101190.2;;;;-68
2023/07/21 09:04:19;;;;;;;;;;;;;;;21.43;50.48047;101188.7;;;;-67
2023/07/21 09:09:10;;;;;;;;;;;;;;;21.51;50.1123;101185.5;;;;-68
2023/07/21 09:09:26;;;;;;;0.2;0;;;;;;;;;;;;;-67
2023/07/21 09:14:10;;;;;;;;;;;;;;;21.68;50.3252;101178.2;;;;-68
2023/07/21 09:19:11;;;;;;;;;;;;;;;22.01;49.8584;101180.9;;;;-68
2023/07/21 09:24:12;;;;;;;;;;;;;;;22.26;49.25684;101176.6;;;;-68
2023/07/21 09:29:18;;;;;;;;;;;;;;;22.46;48.99121;101183.2;;;;-68
2023/07/21 09:34:13;;;;;;;;;;;;;;;22.57;48.78418;101181.9;;;;-68
2023/07/21 09:39:10;;;;;;;;;;;;;;;22.89;47.95898;101175.2;;;;-68
2023/07/21 09:39:28;;;;;;;0.2;0;;;;;;;;;;;;;-68
2023/07/21 09:44:11;;;;;;;;;;;;;;;23.09;47.43848;101173.1;;;;-69
2023/07/21 09:49:10;;;;;;;;;;;;;;;23.06;47.10254;101177.9;;;;-69
2023/07/21 09:54:10;;;;;;;;;;;;;;;22.95;47.32129;101174.5;;;;-67
2023/07/21 09:59:12;;;;;;;;;;;;;;;22.9;47.6709;101172.7;;;;-69
2023/07/21 10:04:10;;;;;;;;;;;;;;;22.97;47.3916;101172.5;;;;-67
2023/07/21 10:09:12;;;;;;;;;;;;;;;23.26;46.49121;101171;;;;-67
2023/07/21 10:09:32;;;;;;;0.2;0.1;;;;;;;;;;;;;-70
2023/07/21 10:14:10;;;;;;;;;;;;;;;23.85;45.2041;101168;;;;-67
2023/07/21 10:19:14;;;;;;;;;;;;;;;24.35;44.51758;101164.9;;;;-68
2023/07/21 10:24:10;;;;;;;;;;;;;;;24.61;43.66504;101163.9;;;;-68
2023/07/21 10:29:21;;;;;;;;;;;;;;;24.52;43.22852;101165.7;;;;-69
2023/07/21 10:34:11;;;;;;;;;;;;;;;24.36;43.7207;101168.5;;;;-68
2023/07/21 10:39:11;;;;;;;;;;;;;;;24.21;43.54395;101167.6;;;;-67
2023/07/21 10:39:36;;;;;;;0.2;0;;;;;;;;;;;;;-68
2023/07/21 10:44:13;;;;;;;;;;;;;;;24.34;43.82227;101174.7;;;;-67
2023/07/21 10:49:11;;;;;;;;;;;;;;;24.43;42.64258;101179.2;;;;-67
2023/07/21 10:54:10;;;;;;;;;;;;;;;24.53;41.9248;101193.8;;;;-69
2023/07/21 10:59:10;;;;;;;;;;;;;;;24.48;41.56152;101186.8;;;;-68
2023/07/21 11:04:11;;;;;;;;;;;;;;;24.37;41.85156;101181.9;;;;-68
2023/07/21 11:09:12;;;;;;;;;;;;;;;24.41;42.49023;101180.6;;;;-69
2023/07/21 11:09:47;;;;;;;0.3;0.1;;;;;;;;;;;;;-68
2023/07/21 11:14:12;;;;;;;;;;;;;;;24.7;42.20605;101179.9;;;;-68
2023/07/21 11:19:10;;;;;;;;;;;;;;;25.09;42.6123;101174.3;;;;-70
2023/07/21 11:24:12;;;;;;;;;;;;;;;25.32;41.98633;101177.1;;;;-69
2023/07/21 11:29:11;;;;;;;;;;;;;;;25.59;41.72168;101182.5;;;;-68
2023/07/21 11:34:20;;;;;;;;;;;;;;;25.77;41.62402;101181.9;;;;-68
2023/07/21 11:39:11;;;;;;;;;;;;;;;25.95;42.17188;101177.1;;;;-68
2023/07/21 11:39:42;;;;;;;0.2;0;;;;;;;;;;;;;-68
2023/07/21 11:44:18;;;;;;;;;;;;;;;25.79;42.52832;101182.2;;;;-68
2023/07/21 11:49:11;;;;;;;;;;;;;;;25.44;43.22461;101179.9;;;;-67
2023/07/21 11:54:20;;;;;;;;;;;;;;;25.47;42.74219;101172.9;;;;-68
2023/07/21 11:59:13;;;;;;;;;;;;;;;25.38;42.92871;101166.3;;;;-67
2023/07/21 12:04:11;;;;;;;;;;;;;;;25.29;42.91992;101167.7;;;;-68
2023/07/21 12:09:12;;;;;;;;;;;;;;;25.2;42.86523;101174.1;;;;-68
2023/07/21 12:09:47;;;;;;;0.2;0;;;;;;;;;;;;;-72
2023/07/21 12:14:10;;;;;;;;;;;;;;;25.06;42.89844;101171.3;;;;-68
2023/07/21 12:19:10;;;;;;;;;;;;;;;24.97;43.20215;101182.9;;;;-68
2023/07/21 12:24:11;;;;;;;;;;;;;;;24.96;44.11426;101178.6;;;;-68
2023/07/21 12:29:10;;;;;;;;;;;;;;;25.15;43.48535;101173.7;;;;-67
2023/07/21 12:34:10;;;;;;;;;;;;;;;25.3;43.69727;101187.2;;;;-68
2023/07/21 12:39:12;;;;;;;;;;;;;;;25.29;43.41797;101175.8;;;;-67
2023/07/21 12:39:55;;;;;;;0.2;0.1;;;;;;;;;;;;;-69
2023/07/21 12:44:10;;;;;;;;;;;;;;;25.25;43.54199;101182.2;;;;-67
2023/07/21 12:49:10;;;;;;;;;;;;;;;25.26;42.82422;101186.5;;;;-68
2023/07/21 12:54:10;;;;;;;;;;;;;;;25.49;43.04492;101187.3;;;;-68
2023/07/21 12:59:10;;;;;;;;;;;;;;;25.84;42.01074;101193.6;;;;-68
2023/07/21 13:04:12;;;;;;;;;;;;;;;25.82;42.4502;101195.8;;;;-67
2023/07/21 13:09:10;;;;;;;;;;;;;;;25.84;42.17383;101202.8;;;;-67
2023/07/21 13:09:56;;;;;;;0.2;0;;;;;;;;;;;;;-68
2023/07/21 13:14:10;;;;;;;;;;;;;;;25.98;42.11719;101198.9;;;;-68
2023/07/21 13:19:10;;;;;;;;;;;;;;;26.08;41.97559;101203.7;;;;-69
2023/07/21 13:24:10;;;;;;;;;;;;;;;26.08;41.03711;101213.4;;;;-67
2023/07/21 13:29:12;;;;;;;;;;;;;;;25.9;41.31055;101220.5;;;;-68
2023/07/21 13:34:10;;;;;;;;;;;;;;;25.87;41.13379;101217.9;;;;-68
2023/07/21 13:39:10;;;;;;;;;;;;;;;25.76;41.14648;101222.6;;;;-69
2023/07/21 13:40:00;;;;;;;0.4;0.1;;;;;;;;;;;;;-69
2023/07/21 13:44:11;;;;;;;;;;;;;;;25.67;40.7666;101221.1;;;;-67
2023/07/21 13:49:10;;;;;;;;;;;;;;;25.57;41.38379;101223.1;;;;-68
2023/07/21 13:54:10;;;;;;;;;;;;;;;25.55;41.20801;101228.6;;;;-67
2023/07/21 13:59:10;;;;;;;;;;;;;;;25.52;40.82422;101230.9;;;;-67
2023/07/21 14:04:10;;;;;;;;;;;;;;;25.48;41.22559;101223.6;;;;-68
2023/07/21 14:09:11;;;;;;;;;;;;;;;25.47;40.80859;101228.7;;;;-69
2023/07/21 14:10:05;;;;;;;0.2;0;;;;;;;;;;;;;-69
2023/07/21 14:14:10;;;;;;;;;;;;;;;25.54;40.70996;101227.8;;;;-68
2023/07/21 14:19:10;;;;;;;;;;;;;;;25.51;39.78125;101231;;;;-68
2023/07/21 14:24:10;;;;;;;;;;;;;;;25.61;40.42676;101231.4;;;;-67
2023/07/21 14:29:10;;;;;;;;;;;;;;;25.94;39.91113;101236.1;;;;-67
2023/07/21 14:34:13;;;;;;;;;;;;;;;26.15;39.6748;101234;;;;-68
2023/07/21 14:39:10;;;;;;;;;;;;;;;26.18;39.81641;101242;;;;-69
2023/07/21 14:40:11;;;;;;;0.2;0;;;;;;;;;;;;;-69
2023/07/21 14:44:11;;;;;;;;;;;;;;;26.04;39.33984;101241.9;;;;-68
2023/07/21 14:49:10;;;;;;;;;;;;;;;25.94;39.48242;101239.6;;;;-67
2023/07/21 14:54:10;;;;;;;;;;;;;;;25.85;39.99609;101234.4;;;;-70
2023/07/21 14:59:10;;;;;;;;;;;;;;;25.66;40.14063;101242.6;;;;-69
2023/07/21 15:04:10;;;;;;;;;;;;;;;25.4;40.16406;101252.7;;;;-69
2023/07/21 15:09:10;;;;;;;;;;;;;;;25.12;40.6377;101259.1;;;;-70
2023/07/21 15:10:13;;;;;;;0.3;0.1;;;;;;;;;;;;;-67
2023/07/21 15:14:10;;;;;;;;;;;;;;;24.99;40.70605;101244.5;;;;-71
2023/07/21 15:19:10;;;;;;;;;;;;;;;25.11;41.12207;101245.4;;;;-69
2023/07/21 15:24:10;;;;;;;;;;;;;;;25.33;40.91113;101251.9;;;;-70
2023/07/21 15:29:11;;;;;;;;;;;;;;;25.43;40.43359;101250.9;;;;-69
2023/07/21 15:34:12;;;;;;;;;;;;;;;25.49;40.14844;101251.6;;;;-68
2023/07/21 15:39:11;;;;;;;;;;;;;;;25.63;40.06836;101251.2;;;;-68
2023/07/21 15:40:18;;;;;;;0.2;0;;;;;;;;;;;;;-69
2023/07/21 15:44:10;;;;;;;;;;;;;;;25.72;39.42871;101256.4;;;;-68
2023/07/21 15:49:10;;;;;;;;;;;;;;;25.86;39.4043;101260.2;;;;-68
2023/07/21 15:54:10;;;;;;;;;;;;;;;25.94;39.30859;101268.5;;;;-69
2023/07/21 15:59:10;;;;;;;;;;;;;;;25.96;39.49512;101268.6;;;;-69
2023/07/21 16:04:10;;;;;;;;;;;;;;;25.77;39.23438;101273.9;;;;-68
2023/07/21 16:09:10;;;;;;;;;;;;;;;25.65;39.91992;101277.5;;;;-69
2023/07/21 16:10:21;;;;;;;0.3;0.1;;;;;;;;;;;;;-68
2023/07/21 16:14:10;;;;;;;;;;;;;;;25.66;39.93262;101279.8;;;;-68
2023/07/21 16:19:10;;;;;;;;;;;;;;;25.6;39.60352;101282.6;;;;-68
2023/07/21 16:24:11;;;;;;;;;;;;;;;25.55;39.64453;101293.5;;;;-67
2023/07/21 16:29:10;;;;;;;;;;;;;;;25.37;39.75586;101300.6;;;;-67
2023/07/21 16:34:10;;;;;;;;;;;;;;;25.09;40.04395;101302.9;;;;-70
2023/07/21 16:39:10;;;;;;;;;;;;;;;24.76;40.16504;101297.7;;;;-68
2023/07/21 16:40:25;;;;;;;0.2;0;;;;;;;;;;;;;-68
2023/07/21 16:44:10;;;;;;;;;;;;;;;24.66;40.69922;101299.5;;;;-68
2023/07/21 16:49:10;;;;;;;;;;;;;;;24.59;40.76172;101300.4;;;;-68
2023/07/21 16:54:10;;;;;;;;;;;;;;;24.48;40.60254;101307.5;;;;-68
2023/07/21 16:59:10;;;;;;;;;;;;;;;24.37;40.71875;101315.4;;;;-68
2023/07/21 17:04:10;;;;;;;;;;;;;;;24.15;40.91895;101308.8;;;;-69
2023/07/21 17:09:10;;;;;;;;;;;;;;;23.94;41.30371;101307.8;;;;-69
2023/07/21 17:10:29;;;;;;;0.2;0;;;;;;;;;;;;;-69
2023/07/21 17:14:10;;;;;;;;;;;;;;;23.7;41.70801;101311;;;;-67
2023/07/21 17:19:10;;;;;;;;;;;;;;;23.57;41.71777;101315.8;;;;-68
2023/07/21 17:24:10;;;;;;;;;;;;;;;23.4;41.87695;101323.5;;;;-71
2023/07/21 17:29:10;;;;;;;;;;;;;;;23.34;41.91699;101324.2;;;;-68
2023/07/21 17:34:10;;;;;;;;;;;;;;;23.2;42.03027;101327.3;;;;-69
2023/07/21 17:39:10;;;;;;;;;;;;;;;23.07;42.06348;101323.6;;;;-68
2023/07/21 17:40:33;;;;;;;0.5;0.3;;;;;;;;;;;;;-69
2023/07/21 17:44:10;;;;;;;;;;;;;;;22.92;42.34961;101327.3;;;;-68
2023/07/21 17:49:10;;;;;;;;;;;;;;;22.79;42.21094;101328.7;;;;-68
2023/07/21 17:54:10;;;;;;;;;;;;;;;22.69;42.75293;101332;;;;-68
2023/07/21 17:59:11;;;;;;;;;;;;;;;22.53;42.46191;101336.3;;;;-69
2023/07/21 18:04:10;;;;;;;;;;;;;;;22.37;42.76855;101333.8;;;;-68
2023/07/21 18:09:11;;;;;;;;;;;;;;;22.26;42.66699;101329.9;;;;-68
2023/07/21 18:10:38;;;;;;;0.7;0.5;;;;;;;;;;;;;-67
2023/07/21 18:14:10;;;;;;;;;;;;;;;22.15;43.17188;101330.6;;;;-69
2023/07/21 18:19:11;;;;;;;;;;;;;;;22;43.16895;101327.5;;;;-68
2023/07/21 18:24:10;;;;;;;;;;;;;;;21.87;43.19141;101340;;;;-69
2023/07/21 18:29:10;;;;;;;;;;;;;;;21.72;43.63574;101338.1;;;;-68
2023/07/21 18:34:10;;;;;;;;;;;;;;;21.46;44.26465;101341.2;;;;-67
2023/07/21 18:39:11;;;;;;;;;;;;;;;20.01;49.75;101341.7;;;;-68
2023/07/21 18:40:41;;;;;;;0.2;0.1;;;;;;;;;;;;;-69
2023/07/21 18:44:12;;;;;;;;;;;;;;;20.76;46.14063;101342.3;;;;-68
2023/07/21 18:49:10;;;;;;;;;;;;;;;20.89;44.51563;101340.9;;;;-69
2023/07/21 18:54:10;;;;;;;;;;;;;;;20.85;44.50098;101343.7;;;;-68
2023/07/21 18:59:10;;;;;;;;;;;;;;;20.75;44.12402;101345.4;;;;-67
2023/07/21 19:04:10;;;;;;;;;;;;;;;20.58;44.16504;101344.4;;;;-68
2023/07/21 19:09:10;;;;;;;;;;;;;;;20.31;45.77344;101343.4;;;;-68
2023/07/21 19:10:45;;;;;;;0.2;0.1;;;;;;;;;;;;;-70
2023/07/21 19:14:11;;;;;;;;;;;;;;;20.21;44.89453;101346.5;;;;-67
2023/07/21 19:19:10;;;;;;;;;;;;;;;20.05;45.35742;101352.8;;;;-67
2023/07/21 19:24:10;;;;;;;;;;;;;;;19.89;45.54785;101361.8;;;;-68
2023/07/21 19:29:10;;;;;;;;;;;;;;;19.71;45.51758;101365.2;;;;-68
2023/07/21 19:34:10;;;;;;;;;;;;;;;19.56;45.72949;101368.9;;;;-67
2023/07/21 19:39:10;;;;;;;;;;;;;;;19.38;45.96289;101368.7;;;;-68
2023/07/21 19:40:47;;;;;;;0.2;0;;;;;;;;;;;;;-68
2023/07/21 19:44:10;;;;;;;;;;;;;;;19.24;45.92578;101376.4;;;;-68
2023/07/21 19:49:14;;;;;;;;;;;;;;;19.09;46.2168;101382.1;;;;-68
2023/07/21 19:54:10;;;;;;;;;;;;;;;18.95;46.5459;101382.9;;;;-68
2023/07/21 19:59:10;;;;;;;;;;;;;;;18.79;46.69922;101386.1;;;;-68
2023/07/21 20:04:10;;;;;;;;;;;;;;;18.64;47.07031;101390.1;;;;-71
2023/07/21 20:09:10;;;;;;;;;;;;;;;18.53;47.21777;101393.9;;;;-69
2023/07/21 20:10:50;;;;;;;0.3;0.2;;;;;;;;;;;;;-69
2023/07/21 20:14:10;;;;;;;;;;;;;;;18.44;47.19629;101390.1;;;;-69
2023/07/21 20:19:14;;;;;;;;;;;;;;;18.34;47.12988;101398.1;;;;-69
2023/07/21 20:24:10;;;;;;;;;;;;;;;18.27;47.41797;101395.8;;;;-70
2023/07/21 20:29:10;;;;;;;;;;;;;;;18.2;47.63867;101397.6;;;;-67
2023/07/21 20:34:10;;;;;;;;;;;;;;;18.12;47.61719;101404.6;;;;-67
2023/07/21 20:39:10;;;;;;;;;;;;;;;18.05;47.49707;101407.8;;;;-68
2023/07/21 20:40:53;;;;;;;0.2;0;;;;;;;;;;;;;-69
2023/07/21 20:44:10;;;;;;;;;;;;;;;18;47.69629;101412.7;;;;-71
2023/07/21 20:49:10;;;;;;;;;;;;;;;17.96;47.98633;101424.7;;;;-69
2023/07/21 20:54:10;;;;;;;;;;;;;;;17.9;47.98047;101424;;;;-69
2023/07/21 20:59:10;;;;;;;;;;;;;;;17.87;48;101430.1;;;;-69
2023/07/21 21:04:13;;;;;;;;;;;;;;;17.86;48.05469;101436.1;;;;-71
2023/07/21 21:09:10;;;;;;;;;;;;;;;17.81;48.37891;101433.4;;;;-68
2023/07/21 21:10:59;;;;;;;0.2;0.1;;;;;;;;;;;;;-69
2023/07/21 21:14:10;;;;;;;;;;;;;;;17.74;48.53027;101435.4;;;;-68
2023/07/21 21:19:10;;;;;;;;;;;;;;;17.69;48.57129;101432;;;;-67
2023/07/21 21:24:10;;;;;;;;;;;;;;;17.64;48.47363;101441;;;;-71
2023/07/21 21:29:10;;;;;;;;;;;;;;;17.52;48.74414;101446.3;;;;-71
2023/07/21 21:34:10;;;;;;;;;;;;;;;17.48;48.79688;101445.6;;;;-71
2023/07/21 21:39:10;;;;;;;;;;;;;;;17.39;48.67383;101438.3;;;;-72
2023/07/21 21:41:00;;;;;;;0.2;0.1;;;;;;;;;;;;;-72
2023/07/21 21:44:10;;;;;;;;;;;;;;;17.25;48.96484;101438.3;;;;-70
2023/07/21 21:49:10;;;;;;;;;;;;;;;17.2;48.92578;101440;;;;-72
2023/07/21 21:54:10;;;;;;;;;;;;;;;17.07;48.87695;101438.5;;;;-72
2023/07/21 21:59:10;;;;;;;;;;;;;;;17.01;49.24414;101442.9;;;;-71
2023/07/21 22:04:10;;;;;;;;;;;;;;;16.94;49.38281;101437.3;;;;-71
2023/07/21 22:09:11;;;;;;;;;;;;;;;16.84;49.53027;101434.8;;;;-71
2023/07/21 22:11:02;;;;;;;0.2;0.1;;;;;;;;;;;;;-71
2023/07/21 22:14:10;;;;;;;;;;;;;;;16.77;49.5127;101441.2;;;;-71
2023/07/21 22:19:10;;;;;;;;;;;;;;;16.74;49.72363;101437.7;;;;-71
2023/07/21 22:24:10;;;;;;;;;;;;;;;16.71;49.82324;101431.4;;;;-71
2023/07/21 22:29:10;;;;;;;;;;;;;;;16.7;49.86719;101427.5;;;;-72
2023/07/21 22:34:10;;;;;;;;;;;;;;;16.65;50.2002;101429.2;;;;-72
2023/07/21 22:39:13;;;;;;;;;;;;;;;16.59;50.28418;101431;;;;-72
2023/07/21 22:41:06;;;;;;;0.2;0;;;;;;;;;;;;;-71
2023/07/21 22:44:10;;;;;;;;;;;;;;;16.56;50.62012;101431.4;;;;-72
2023/07/21 22:49:10;;;;;;;;;;;;;;;16.52;50.86426;101433;;;;-72
2023/07/21 22:54:10;;;;;;;;;;;;;;;16.47;50.77832;101441.2;;;;-72
2023/07/21 22:59:10;;;;;;;;;;;;;;;16.4;51.05371;101438.1;;;;-71
2023/07/21 23:04:10;;;;;;;;;;;;;;;16.37;51.02832;101437.5;;;;-71
2023/07/21 23:09:10;;;;;;;;;;;;;;;16.31;51.59863;101443;;;;-71
2023/07/21 23:11:06;;;;;;;0.6;0.4;;;;;;;;;;;;;-72
2023/07/21 23:14:10;;;;;;;;;;;;;;;16.33;51.25;101440.2;;;;-68
2023/07/21 23:19:10;;;;;;;;;;;;;;;16.33;51.47559;101432.5;;;;-68
2023/07/21 23:24:10;;;;;;;;;;;;;;;16.33;51.27344;101433.8;;;;-71
2023/07/21 23:29:10;;;;;;;;;;;;;;;16.35;51.16211;101433.3;;;;-71
2023/07/21 23:34:10;;;;;;;;;;;;;;;16.37;51.25488;101429.8;;;;-71
2023/07/21 23:39:12;;;;;;;;;;;;;;;16.37;51.27734;101425.3;;;;-71
2023/07/21 23:41:09;;;;;;;0.2;0;;;;;;;;;;;;;-72
2023/07/21 23:44:10;;;;;;;;;;;;;;;16.39;51.18848;101422.9;;;;-71
2023/07/21 23:49:12;;;;;;;;;;;;;;;16.39;51.24512;101418.7;;;;-71
2023/07/21 23:54:14;;;;;;;;;;;;;;;16.38;51.2666;101415.9;;;;-71
2023/07/21 23:59:10;;;;;;;;;;;;;;;16.37;51.65039;101423.8;;;;-69
